sensor_id;sensor_type;location;lat;lon;timestamp;pressure;altitude;pressure_sealevel;temperature;humidity
5703;BME280;2876;51.738;10.050;2023-11-19T00:02:45;98813.22;;;6.25;100.00
5703;BME280;2876;51.738;10.050;2023-11-19T00:08:47;98811.66;;;6.16;100.00
5703;BME280;2876;51.738;10.050;2023-11-19T00:14:49;98787.41;;;6.26;100.00
5703;BME280;2876;51.738;10.050;2023-11-19T00:20:52;98767.03;;;6.33;100.00
5703;BME280;2876;51.738;10.050;2023-11-19T00:26:54;98757.03;;;6.20;100.00
5703;BME280;2876;51.738;10.050;2023-11-19T00:32:56;98739.69;;;6.60;100.00
5703;BME280;2876;51.738;10.050;2023-11-19T00:38:58;98732.00;;;6.51;100.00
5703;BME280;2876;51.738;10.050;2023-11-19T00:45:00;98722.13;;;6.30;100.00
5703;BME280;2876;51.738;10.050;2023-11-19T00:51:03;98723.50;;;6.41;100.00
5703;BME280;2876;51.738;10.050;2023-11-19T00:57:06;98710.13;;;6.55;100.00
5703;BME280;2876;51.738;10.050;2023-11-19T01:03:07;98709.44;;;6.68;100.00
5703;BME280;2876;51.738;10.050;2023-11-19T01:09:10;98696.81;;;6.55;100.00
5703;BME280;2876;51.738;10.050;2023-11-19T01:15:12;98688.41;;;6.80;100.00
5703;BME280;2876;51.738;10.050;2023-11-19T01:21:15;98674.00;;;6.53;100.00
5703;BME280;2876;51.738;10.050;2023-11-19T01:27:17;98666.94;;;6.60;100.00
5703;BME280;2876;51.738;10.050;2023-11-19T01:33:19;98645.91;;;6.72;100.00
5703;BME280;2876;51.738;10.050;2023-11-19T01:39:21;98637.78;;;6.80;100.00
5703;BME280;2876;51.738;10.050;2023-11-19T01:45:29;98639.19;;;6.76;100.00
5703;BME280;2876;51.738;10.050;2023-11-19T01:51:32;98636.75;;;6.81;100.00
5703;BME280;2876;51.738;10.050;2023-11-19T01:57:35;98618.44;;;6.71;100.00
5703;BME280;2876;51.738;10.050;2023-11-19T02:03:39;98622.31;;;6.69;100.00
5703;BME280;2876;51.738;10.050;2023-11-19T02:09:43;98616.41;;;6.73;100.00
5703;BME280;2876;51.738;10.050;2023-11-19T02:15:45;98613.22;;;6.84;100.00
5703;BME280;2876;51.738;10.050;2023-11-19T02:21:47;98609.34;;;6.87;100.00
5703;BME280;2876;51.738;10.050;2023-11-19T02:28:02;98608.91;;;7.11;100.00
5703;BME280;2876;51.738;10.050;2023-11-19T02:34:05;98592.31;;;7.16;100.00
5703;BME280;2876;51.738;10.050;2023-11-19T02:40:08;98581.25;;;7.19;100.00
5703;BME280;2876;51.738;10.050;2023-11-19T02:46:11;98546.50;;;7.41;100.00
5703;BME280;2876;51.738;10.050;2023-11-19T02:52:16;98543.34;;;7.30;100.00
5703;BME280;2876;51.738;10.050;2023-11-19T02:58:18;98539.06;;;7.29;100.00
5703;BME280;2876;51.738;10.050;2023-11-19T03:04:25;98531.50;;;7.40;100.00
5703;BME280;2876;51.738;10.050;2023-11-19T03:10:28;98523.16;;;7.56;100.00
5703;BME280;2876;51.738;10.050;2023-11-19T03:16:31;98521.56;;;7.75;100.00
5703;BME280;2876;51.738;10.050;2023-11-19T03:22:34;98507.16;;;7.62;100.00
5703;BME280;2876;51.738;10.050;2023-11-19T03:28:36;98489.31;;;7.63;100.00
5703;BME280;2876;51.738;10.050;2023-11-19T03:34:38;98495.88;;;7.67;100.00
5703;BME280;2876;51.738;10.050;2023-11-19T03:40:42;98468.41;;;7.93;100.00
5703;BME280;2876;51.738;10.050;2023-11-19T03:46:44;98468.41;;;7.73;100.00
5703;BME280;2876;51.738;10.050;2023-11-19T03:52:47;98457.94;;;7.92;100.00
5703;BME280;2876;51.738;10.050;2023-11-19T03:58:50;98439.06;;;7.93;100.00
5703;BME280;2876;51.738;10.050;2023-11-19T04:04:52;98439.28;;;8.05;100.00
5703;BME280;2876;51.738;10.050;2023-11-19T04:10:54;98460.63;;;8.11;100.00
5703;BME280;2876;51.738;10.050;2023-11-19T04:16:56;98439.88;;;8.13;100.00
5703;BME280;2876;51.738;10.050;2023-11-19T04:22:58;98440.69;;;8.34;100.00
5703;BME280;2876;51.738;10.050;2023-11-19T04:29:02;98438.25;;;8.39;100.00
5703;BME280;2876;51.738;10.050;2023-11-19T04:35:04;98439.66;;;8.35;100.00
5703;BME280;2876;51.738;10.050;2023-11-19T04:41:08;98435.94;;;8.69;100.00
5703;BME280;2876;51.738;10.050;2023-11-19T04:47:10;98443.34;;;8.54;100.00
5703;BME280;2876;51.738;10.050;2023-11-19T04:53:16;98424.38;;;8.75;100.00
5703;BME280;2876;51.738;10.050;2023-11-19T04:59:18;98438.91;;;9.06;100.00
5703;BME280;2876;51.738;10.050;2023-11-19T05:05:20;98415.41;;;9.14;100.00
5703;BME280;2876;51.738;10.050;2023-11-19T05:11:23;98398.50;;;9.21;100.00
5703;BME280;2876;51.738;10.050;2023-11-19T05:17:24;98395.06;;;9.07;100.00
5703;BME280;2876;51.738;10.050;2023-11-19T05:23:27;98391.56;;;9.06;100.00
5703;BME280;2876;51.738;10.050;2023-11-19T05:29:29;98372.25;;;9.04;100.00
5703;BME280;2876;51.738;10.050;2023-11-19T05:35:31;98374.38;;;8.89;100.00
5703;BME280;2876;51.738;10.050;2023-11-19T05:41:33;98384.88;;;8.91;100.00
5703;BME280;2876;51.738;10.050;2023-11-19T05:47:35;98364.94;;;8.86;100.00
5703;BME280;2876;51.738;10.050;2023-11-19T05:53:37;98372.31;;;8.84;100.00
5703;BME280;2876;51.738;10.050;2023-11-19T05:59:39;98367.97;;;8.90;100.00
5703;BME280;2876;51.738;10.050;2023-11-19T06:05:43;98418.38;;;9.38;100.00
5703;BME280;2876;51.738;10.050;2023-11-19T06:11:45;98413.38;;;9.48;100.00
5703;BME280;2876;51.738;10.050;2023-11-19T06:17:48;98432.72;;;9.50;100.00
5703;BME280;2876;51.738;10.050;2023-11-19T06:23:51;98432.72;;;9.50;100.00
5703;BME280;2876;51.738;10.050;2023-11-19T06:29:55;98418.88;;;9.60;100.00
5703;BME280;2876;51.738;10.050;2023-11-19T06:35:59;98418.00;;;9.66;100.00
5703;BME280;2876;51.738;10.050;2023-11-19T06:42:01;98420.00;;;9.39;100.00
5703;BME280;2876;51.738;10.050;2023-11-19T06:48:04;98424.63;;;9.57;100.00
5703;BME280;2876;51.738;10.050;2023-11-19T06:54:07;98414.13;;;9.17;100.00
5703;BME280;2876;51.738;10.050;2023-11-19T07:00:09;98424.88;;;9.49;100.00
5703;BME280;2876;51.738;10.050;2023-11-19T07:06:13;98423.31;;;9.41;100.00
5703;BME280;2876;51.738;10.050;2023-11-19T07:12:15;98447.22;;;9.36;100.00
5703;BME280;2876;51.738;10.050;2023-11-19T07:18:17;98449.19;;;9.47;100.00
5703;BME280;2876;51.738;10.050;2023-11-19T07:24:20;98423.41;;;9.59;100.00
5703;BME280;2876;51.738;10.050;2023-11-19T07:30:23;98440.38;;;9.78;100.00
5703;BME280;2876;51.738;10.050;2023-11-19T07:36:25;98443.25;;;10.08;100.00
5703;BME280;2876;51.738;10.050;2023-11-19T07:42:27;98441.59;;;10.07;100.00
5703;BME280;2876;51.738;10.050;2023-11-19T07:48:29;98461.44;;;10.31;100.00
5703;BME280;2876;51.738;10.050;2023-11-19T07:54:31;98468.50;;;10.44;100.00
5703;BME280;2876;51.738;10.050;2023-11-19T08:00:33;98445.06;;;10.58;100.00
5703;BME280;2876;51.738;10.050;2023-11-19T08:06:35;98459.34;;;10.77;100.00
5703;BME280;2876;51.738;10.050;2023-11-19T08:12:38;98450.25;;;10.78;100.00
5703;BME280;2876;51.738;10.050;2023-11-19T08:18:44;98456.28;;;10.73;100.00
5703;BME280;2876;51.738;10.050;2023-11-19T08:24:46;98445.47;;;10.80;100.00
5703;BME280;2876;51.738;10.050;2023-11-19T08:30:48;98482.03;;;11.17;100.00
5703;BME280;2876;51.738;10.050;2023-11-19T08:36:51;98486.09;;;11.20;100.00
5703;BME280;2876;51.738;10.050;2023-11-19T08:42:55;98498.78;;;10.95;100.00
5703;BME280;2876;51.738;10.050;2023-11-19T08:48:57;98488.88;;;10.95;100.00
5703;BME280;2876;51.738;10.050;2023-11-19T08:54:59;98479.25;;;11.24;100.00
5703;BME280;2876;51.738;10.050;2023-11-19T09:01:01;98494.09;;;11.27;100.00
5703;BME280;2876;51.738;10.050;2023-11-19T09:07:04;98492.53;;;11.19;100.00
5703;BME280;2876;51.738;10.050;2023-11-19T09:13:06;98504.06;;;11.38;100.00
5703;BME280;2876;51.738;10.050;2023-11-19T09:19:08;98512.38;;;11.66;100.00
5703;BME280;2876;51.738;10.050;2023-11-19T09:25:10;98509.50;;;11.80;100.00
5703;BME280;2876;51.738;10.050;2023-11-19T09:31:18;98521.84;;;11.87;96.22
5703;BME280;2876;51.738;10.050;2023-11-19T09:37:20;98518.78;;;11.84;97.61
5703;BME280;2876;51.738;10.050;2023-11-19T09:43:23;98534.28;;;12.00;95.21
5703;BME280;2876;51.738;10.050;2023-11-19T09:49:26;98524.56;;;12.41;91.99
5703;BME280;2876;51.738;10.050;2023-11-19T09:55:31;98528.31;;;12.52;91.53
5703;BME280;2876;51.738;10.050;2023-11-19T10:01:34;98515.69;;;12.52;91.40
5703;BME280;2876;51.738;10.050;2023-11-19T10:07:37;98525.28;;;12.60;89.23
5703;BME280;2876;51.738;10.050;2023-11-19T10:13:39;98519.22;;;12.76;88.25
5703;BME280;2876;51.738;10.050;2023-11-19T10:19:42;98532.56;;;12.94;86.30
5703;BME280;2876;51.738;10.050;2023-11-19T10:25:44;98507.97;;;12.79;85.26
5703;BME280;2876;51.738;10.050;2023-11-19T10:31:56;98506.00;;;12.63;86.48
5703;BME280;2876;51.738;10.050;2023-11-19T10:38:19;98516.97;;;12.38;88.06
5703;BME280;2876;51.738;10.050;2023-11-19T10:44:34;98510.63;;;12.32;88.45
5703;BME280;2876;51.738;10.050;2023-11-19T10:50:43;98503.75;;;12.36;89.26
5703;BME280;2876;51.738;10.050;2023-11-19T10:56:55;98505.63;;;12.36;91.42
5703;BME280;2876;51.738;10.050;2023-11-19T11:03:01;98497.09;;;12.51;90.74
5703;BME280;2876;51.738;10.050;2023-11-19T11:09:09;98492.91;;;12.55;88.33
5703;BME280;2876;51.738;10.050;2023-11-19T11:15:14;98500.97;;;12.66;85.92
5703;BME280;2876;51.738;10.050;2023-11-19T11:21:22;98505.88;;;12.93;84.98
5703;BME280;2876;51.738;10.050;2023-11-19T11:40:41;98514.66;;;13.35;80.81
5703;BME280;2876;51.738;10.050;2023-11-19T11:46:54;98511.72;;;13.25;81.56
5703;BME280;2876;51.738;10.050;2023-11-19T11:59:01;98501.97;;;13.12;82.25
5703;BME280;2876;51.738;10.050;2023-11-19T12:05:06;98500.84;;;12.85;84.38
5703;BME280;2876;51.738;10.050;2023-11-19T12:11:08;98511.03;;;12.94;83.46
5703;BME280;2876;51.738;10.050;2023-11-19T12:23:35;98497.69;;;13.00;82.01
5703;BME280;2876;51.738;10.050;2023-11-19T12:29:42;98502.38;;;13.04;81.77
5703;BME280;2876;51.738;10.050;2023-11-19T12:35:47;98501.75;;;13.14;81.11
5703;BME280;2876;51.738;10.050;2023-11-19T12:41:51;98510.91;;;13.01;80.29
5703;BME280;2876;51.738;10.050;2023-11-19T12:48:07;98507.63;;;12.76;84.34
5703;BME280;2876;51.738;10.050;2023-11-19T12:54:11;98508.81;;;12.68;84.96
5703;BME280;2876;51.738;10.050;2023-11-19T13:00:23;98521.03;;;12.29;89.39
5703;BME280;2876;51.738;10.050;2023-11-19T13:06:25;98521.09;;;12.10;93.46
5703;BME280;2876;51.738;10.050;2023-11-19T13:12:27;98516.19;;;11.77;94.04
5703;BME280;2876;51.738;10.050;2023-11-19T13:18:29;98505.91;;;11.56;94.43
5703;BME280;2876;51.738;10.050;2023-11-19T13:24:45;98502.78;;;11.59;92.22
5703;BME280;2876;51.738;10.050;2023-11-19T13:30:48;98501.34;;;11.56;93.04
5703;BME280;2876;51.738;10.050;2023-11-19T13:36:50;98493.53;;;11.55;93.01
5703;BME280;2876;51.738;10.050;2023-11-19T13:42:52;98483.59;;;12.04;90.53
5703;BME280;2876;51.738;10.050;2023-11-19T13:48:54;98475.09;;;12.30;88.75
5703;BME280;2876;51.738;10.050;2023-11-19T13:54:56;98460.97;;;12.47;89.35
5703;BME280;2876;51.738;10.050;2023-11-19T14:00:58;98464.00;;;12.62;87.81
5703;BME280;2876;51.738;10.050;2023-11-19T14:07:00;98458.13;;;12.30;88.06
5703;BME280;2876;51.738;10.050;2023-11-19T14:13:02;98473.72;;;12.51;87.99
5703;BME280;2876;51.738;10.050;2023-11-19T14:19:04;98473.13;;;12.37;88.87
5703;BME280;2876;51.738;10.050;2023-11-19T14:25:08;98465.38;;;12.29;90.13
5703;BME280;2876;51.738;10.050;2023-11-19T14:31:12;98466.06;;;12.13;91.62
5703;BME280;2876;51.738;10.050;2023-11-19T14:37:13;98498.97;;;11.97;93.52
5703;BME280;2876;51.738;10.050;2023-11-19T14:43:15;98468.88;;;11.58;96.11
5703;BME280;2876;51.738;10.050;2023-11-19T14:49:17;98460.06;;;11.39;98.89
5703;BME280;2876;51.738;10.050;2023-11-19T14:55:19;98465.22;;;11.40;99.93
5703;BME280;2876;51.738;10.050;2023-11-19T15:01:21;98450.56;;;11.06;100.00
5703;BME280;2876;51.738;10.050;2023-11-19T15:07:24;98438.78;;;10.89;100.00
5703;BME280;2876;51.738;10.050;2023-11-19T15:13:26;98440.25;;;10.66;100.00
5703;BME280;2876;51.738;10.050;2023-11-19T15:19:28;98446.78;;;10.52;100.00
5703;BME280;2876;51.738;10.050;2023-11-19T15:25:30;98453.19;;;10.51;100.00
5703;BME280;2876;51.738;10.050;2023-11-19T15:31:32;98440.97;;;10.37;100.00
5703;BME280;2876;51.738;10.050;2023-11-19T15:37:34;98455.53;;;10.16;100.00
5703;BME280;2876;51.738;10.050;2023-11-19T15:43:37;98458.19;;;10.48;100.00
5703;BME280;2876;51.738;10.050;2023-11-19T15:49:39;98462.78;;;10.84;100.00
5703;BME280;2876;51.738;10.050;2023-11-19T15:55:41;98454.13;;;10.82;99.92
5703;BME280;2876;51.738;10.050;2023-11-19T16:01:43;98466.78;;;10.93;99.13
5703;BME280;2876;51.738;10.050;2023-11-19T16:07:45;98468.56;;;10.81;98.88
5703;BME280;2876;51.738;10.050;2023-11-19T16:13:47;98476.84;;;10.79;98.87
5703;BME280;2876;51.738;10.050;2023-11-19T16:19:49;98481.78;;;10.82;99.18
5703;BME280;2876;51.738;10.050;2023-11-19T16:25:51;98472.91;;;10.63;100.00
5703;BME280;2876;51.738;10.050;2023-11-19T16:31:54;98467.97;;;10.60;100.00
5703;BME280;2876;51.738;10.050;2023-11-19T16:37:56;98466.19;;;10.73;100.00
5703;BME280;2876;51.738;10.050;2023-11-19T16:43:58;98462.69;;;10.54;100.00
5703;BME280;2876;51.738;10.050;2023-11-19T16:50:05;98464.06;;;10.81;100.00
5703;BME280;2876;51.738;10.050;2023-11-19T16:56:07;98470.75;;;10.72;100.00
5703;BME280;2876;51.738;10.050;2023-11-19T17:02:09;98478.94;;;10.77;100.00
5703;BME280;2876;51.738;10.050;2023-11-19T17:08:13;98476.41;;;10.82;99.54
5703;BME280;2876;51.738;10.050;2023-11-19T17:14:15;98471.59;;;10.91;98.61
5703;BME280;2876;51.738;10.050;2023-11-19T17:20:18;98477.81;;;10.85;98.94
5703;BME280;2876;51.738;10.050;2023-11-19T17:26:20;98479.47;;;11.04;97.54
5703;BME280;2876;51.738;10.050;2023-11-19T17:32:22;98470.00;;;11.02;96.31
5703;BME280;2876;51.738;10.050;2023-11-19T17:38:24;98481.78;;;11.01;96.41
5703;BME280;2876;51.738;10.050;2023-11-19T17:44:29;98477.66;;;11.16;96.10
5703;BME280;2876;51.738;10.050;2023-11-19T17:50:32;98469.28;;;11.13;95.97
5703;BME280;2876;51.738;10.050;2023-11-19T17:56:34;98463.00;;;11.01;96.93
5703;BME280;2876;51.738;10.050;2023-11-19T18:02:36;98471.97;;;11.13;96.53
5703;BME280;2876;51.738;10.050;2023-11-19T18:08:41;98470.22;;;11.18;96.04
5703;BME280;2876;51.738;10.050;2023-11-19T18:14:43;98463.50;;;11.28;94.63
5703;BME280;2876;51.738;10.050;2023-11-19T18:20:48;98467.69;;;11.24;94.61
5703;BME280;2876;51.738;10.050;2023-11-19T18:26:51;98474.16;;;11.16;94.70
5703;BME280;2876;51.738;10.050;2023-11-19T18:32:53;98475.66;;;11.30;93.95
5703;BME280;2876;51.738;10.050;2023-11-19T18:38:56;98472.53;;;11.15;95.15
5703;BME280;2876;51.738;10.050;2023-11-19T18:44:58;98483.78;;;11.24;96.10
5703;BME280;2876;51.738;10.050;2023-11-19T18:51:00;98486.34;;;11.00;97.70
5703;BME280;2876;51.738;10.050;2023-11-19T18:57:03;98485.56;;;10.93;98.93
5703;BME280;2876;51.738;10.050;2023-11-19T19:03:06;98495.50;;;10.92;99.98
5703;BME280;2876;51.738;10.050;2023-11-19T19:09:09;98491.09;;;10.98;100.00
5703;BME280;2876;51.738;10.050;2023-11-19T19:15:11;98491.59;;;10.70;100.00
5703;BME280;2876;51.738;10.050;2023-11-19T19:21:17;98494.53;;;10.62;100.00
5703;BME280;2876;51.738;10.050;2023-11-19T19:27:19;98496.09;;;10.51;100.00
5703;BME280;2876;51.738;10.050;2023-11-19T19:33:21;98489.81;;;10.64;100.00
5703;BME280;2876;51.738;10.050;2023-11-19T19:39:23;98487.06;;;10.46;100.00
5703;BME280;2876;51.738;10.050;2023-11-19T19:45:25;98490.50;;;10.53;100.00
5703;BME280;2876;51.738;10.050;2023-11-19T19:51:27;98500.22;;;10.54;100.00
5703;BME280;2876;51.738;10.050;2023-11-19T19:57:29;98505.22;;;10.69;100.00
5703;BME280;2876;51.738;10.050;2023-11-19T20:03:31;98496.69;;;10.53;100.00
5703;BME280;2876;51.738;10.050;2023-11-19T20:09:34;98494.84;;;10.54;100.00
5703;BME280;2876;51.738;10.050;2023-11-19T20:15:36;98488.63;;;10.53;100.00
5703;BME280;2876;51.738;10.050;2023-11-19T20:21:39;98485.81;;;10.48;100.00
5703;BME280;2876;51.738;10.050;2023-11-19T20:27:41;98493.97;;;10.60;100.00
5703;BME280;2876;51.738;10.050;2023-11-19T20:33:43;98483.03;;;10.36;100.00
5703;BME280;2876;51.738;10.050;2023-11-19T20:39:46;98486.41;;;10.50;100.00
5703;BME280;2876;51.738;10.050;2023-11-19T20:45:48;98473.31;;;10.35;100.00
5703;BME280;2876;51.738;10.050;2023-11-19T20:51:50;98470.59;;;10.42;100.00
5703;BME280;2876;51.738;10.050;2023-11-19T20:57:52;98471.38;;;10.49;100.00
5703;BME280;2876;51.738;10.050;2023-11-19T21:03:55;98473.00;;;10.50;100.00
5703;BME280;2876;51.738;10.050;2023-11-19T21:09:58;98473.00;;;10.50;100.00
5703;BME280;2876;51.738;10.050;2023-11-19T21:16:01;98456.94;;;10.50;100.00
5703;BME280;2876;51.738;10.050;2023-11-19T21:22:04;98456.53;;;10.47;100.00
5703;BME280;2876;51.738;10.050;2023-11-19T21:28:06;98450.25;;;10.34;100.00
5703;BME280;2876;51.738;10.050;2023-11-19T21:34:08;98441.28;;;10.47;100.00
5703;BME280;2876;51.738;10.050;2023-11-19T21:40:10;98440.38;;;10.53;100.00
5703;BME280;2876;51.738;10.050;2023-11-19T21:46:13;98446.22;;;10.50;100.00
5703;BME280;2876;51.738;10.050;2023-11-19T21:52:16;98437.63;;;10.41;100.00
5703;BME280;2876;51.738;10.050;2023-11-19T21:58:18;98432.19;;;10.48;100.00
5703;BME280;2876;51.738;10.050;2023-11-19T22:04:20;98427.66;;;10.24;100.00
5703;BME280;2876;51.738;10.050;2023-11-19T22:10:22;98421.47;;;10.48;100.00
5703;BME280;2876;51.738;10.050;2023-11-19T22:16:24;98425.81;;;10.24;100.00
5703;BME280;2876;51.738;10.050;2023-11-19T22:22:26;98407.53;;;10.39;100.00
5703;BME280;2876;51.738;10.050;2023-11-19T22:28:29;98398.09;;;10.55;100.00
5703;BME280;2876;51.738;10.050;2023-11-19T22:34:31;98412.97;;;10.33;100.00
5703;BME280;2876;51.738;10.050;2023-11-19T22:40:33;98389.75;;;10.20;100.00
5703;BME280;2876;51.738;10.050;2023-11-19T22:46:35;98387.63;;;10.29;100.00
5703;BME280;2876;51.738;10.050;2023-11-19T22:52:37;98375.44;;;10.33;100.00
5703;BME280;2876;51.738;10.050;2023-11-19T22:58:39;98381.41;;;10.10;100.00
5703;BME280;2876;51.738;10.050;2023-11-19T23:04:44;98379.16;;;10.07;100.00
5703;BME280;2876;51.738;10.050;2023-11-19T23:10:46;98377.34;;;10.01;100.00
5703;BME280;2876;51.738;10.050;2023-11-19T23:16:49;98377.44;;;10.12;100.00
5703;BME280;2876;51.738;10.050;2023-11-19T23:22:51;98377.81;;;10.16;100.00
5703;BME280;2876;51.738;10.050;2023-11-19T23:28:53;98380.47;;;9.98;100.00
5703;BME280;2876;51.738;10.050;2023-11-19T23:35:10;98367.88;;;9.98;100.00
5703;BME280;2876;51.738;10.050;2023-11-19T23:41:13;98359.94;;;9.91;100.00
5703;BME280;2876;51.738;10.050;2023-11-19T23:47:15;98364.13;;;10.06;100.00
5703;BME280;2876;51.738;10.050;2023-11-19T23:53:17;98368.69;;;9.99;100.00
5703;BME280;2876;51.738;10.050;2023-11-19T23:59:19;98353.31;;;10.12;100.00
